Time;durP1;ratioP1;P1;durP2;ratioP2;P2;SDS_P1;SDS_P2;PMS_P1;PMS_P2;Temp;Humidity;BMP_temperature;BMP_pressure;BME280_temperature;BME280_humidity;BME280_pressure;Samples;Min_cycle;Max_cycle;Signal;HPM_P1;HPM_P2
2023/05/02 00:02:21;;;;;;;23.70;16.48;;;;;;;12.44;100.00;101877.53;5057778;28;20045;-62
2023/05/02 00:04:48;;;;;;;21.63;15.65;;;;;;;12.42;100.00;101890.59;5055087;28;20123;-60
2023/05/02 00:07:16;;;;;;;23.45;16.00;;;;;;;12.34;100.00;101879.03;5047481;28;20041;-66
2023/05/02 00:09:44;;;;;;;22.67;15.55;;;;;;;12.28;100.00;101884.69;5046164;28;20049;-60
2023/05/02 00:12:11;;;;;;;19.17;14.40;;;;;;;12.27;100.00;101888.50;5038095;28;20041;-60
2023/05/02 00:14:39;;;;;;;21.13;13.80;;;;;;;12.26;100.00;101886.84;5052361;28;20044;-61
2023/05/02 00:17:07;;;;;;;21.20;14.45;;;;;;;12.27;100.00;101894.78;5055928;28;20409;-61
2023/05/02 00:19:38;;;;;;;23.33;15.27;;;;;;;12.24;100.00;101892.56;5033724;28;20049;-59
2023/05/02 00:22:06;;;;;;;20.92;14.68;;;;;;;12.20;100.00;101894.16;5036758;28;20128;-60
2023/05/02 00:24:34;;;;;;;23.20;14.90;;;;;;;12.20;100.00;101896.06;5051835;28;20049;-63
2023/05/02 00:27:01;;;;;;;23.33;14.55;;;;;;;12.20;100.00;101896.88;5041678;28;20040;-62
2023/05/02 00:29:29;;;;;;;21.00;14.13;;;;;;;12.19;100.00;101892.47;5048377;28;20125;-61
2023/05/02 00:31:57;;;;;;;21.13;15.32;;;;;;;12.19;100.00;101902.59;5035737;28;20121;-61
2023/05/02 00:34:30;;;;;;;22.95;15.50;;;;;;;12.17;100.00;101899.28;5033917;28;20053;-60
2023/05/02 00:36:58;;;;;;;25.08;16.15;;;;;;;12.14;100.00;101897.88;5034858;28;20041;-60
2023/05/02 00:39:26;;;;;;;20.67;14.98;;;;;;;12.14;100.00;101895.16;5055345;28;20075;-61
2023/05/02 00:41:58;;;;;;;23.27;15.40;;;;;;;12.15;100.00;101896.81;5053855;28;20048;-60
2023/05/02 00:44:26;;;;;;;19.38;13.48;;;;;;;12.14;100.00;101908.81;5043699;28;20450;-60
2023/05/02 00:46:55;;;;;;;19.55;14.65;;;;;;;12.12;100.00;101898.16;5033990;28;20057;-61
2023/05/02 00:49:23;;;;;;;22.75;15.75;;;;;;;12.09;100.00;101908.75;5049151;28;20432;-61
2023/05/02 00:51:52;;;;;;;22.05;15.95;;;;;;;12.04;100.00;101903.22;5050103;28;20401;-61
2023/05/02 00:54:20;;;;;;;23.35;16.48;;;;;;;12.02;100.00;101903.44;5050199;28;20050;-62
2023/05/02 00:56:47;;;;;;;23.25;15.23;;;;;;;12.04;100.00;101905.94;5034343;28;20046;-65
2023/05/02 00:59:16;;;;;;;25.35;15.43;;;;;;;12.02;100.00;101913.56;5063969;28;20489;-60
2023/05/02 01:02:15;;;;;;;19.17;12.55;;;;;;;11.94;100.00;101901.16;5036161;28;20106;-63
2023/05/02 01:05:00;;;;;;;18.60;11.85;;;;;;;11.90;100.00;101908.19;5026960;28;20444;-60
2023/05/02 01:07:33;;;;;;;17.02;11.05;;;;;;;11.87;100.00;101909.50;5037078;28;20041;-61
2023/05/02 01:10:21;;;;;;;14.68;10.60;;;;;;;11.83;100.00;101902.03;5020666;28;20048;-61
2023/05/02 01:13:16;;;;;;;17.15;11.07;;;;;;;11.84;100.00;101912.72;5046552;28;20071;-60
2023/05/02 01:15:45;;;;;;;14.50;10.25;;;;;;;11.83;100.00;101904.78;5053861;28;20045;-63
2023/05/02 01:18:14;;;;;;;19.42;11.50;;;;;;;11.82;100.00;101893.03;5053855;28;20056;-61
2023/05/02 01:20:43;;;;;;;18.27;11.18;;;;;;;11.81;100.00;101902.31;5034795;28;20046;-62
2023/05/02 01:23:22;;;;;;;16.95;11.57;;;;;;;11.79;100.00;101906.38;5051427;28;20072;-60
2023/05/02 01:26:01;;;;;;;16.70;11.00;;;;;;;11.81;100.00;101905.03;5033757;28;20045;-60
2023/05/02 01:28:54;;;;;;;16.92;11.77;;;;;;;11.80;100.00;101900.63;5052323;28;20049;-61
2023/05/02 01:31:25;;;;;;;17.52;11.48;;;;;;;11.81;100.00;101902.31;5033693;28;20416;-64
2023/05/02 01:33:59;;;;;;;20.85;12.73;;;;;;;11.83;100.00;101902.84;5031080;28;20049;-61
2023/05/02 01:36:30;;;;;;;18.50;12.32;;;;;;;11.86;100.00;101902.38;5017856;28;20056;-62
2023/05/02 01:38:59;;;;;;;18.13;12.52;;;;;;;11.87;100.00;101906.78;5021127;28;20049;-61
2023/05/02 01:41:29;;;;;;;20.60;13.45;;;;;;;11.84;100.00;101912.72;5032234;28;20514;-61
2023/05/02 01:43:57;;;;;;;20.15;12.80;;;;;;;11.81;100.00;101907.78;5034037;28;20049;-60
2023/05/02 01:46:33;;;;;;;20.02;12.60;;;;;;;11.83;100.00;101921.16;5033225;28;20037;-61
2023/05/02 01:49:04;;;;;;;16.05;11.23;;;;;;;11.81;100.00;101917.84;5050950;28;20049;-60
2023/05/02 01:51:37;;;;;;;16.88;12.30;;;;;;;11.81;100.00;101912.38;5034279;28;20083;-66
2023/05/02 01:54:07;;;;;;;17.48;11.98;;;;;;;11.80;100.00;101910.75;5056884;28;20076;-61
2023/05/02 01:56:37;;;;;;;18.23;11.65;;;;;;;11.81;100.00;101924.16;5036462;28;20095;-61
2023/05/02 01:59:10;;;;;;;17.10;11.52;;;;;;;11.80;100.00;101933.41;5046967;28;20069;-60
2023/05/02 02:01:39;;;;;;;16.17;11.32;;;;;;;11.80;100.00;101936.13;5035702;28;20080;-59
2023/05/02 02:04:10;;;;;;;19.20;12.55;;;;;;;11.78;100.00;101938.28;5035915;28;20052;-60
2023/05/02 02:06:38;;;;;;;19.17;11.77;;;;;;;11.77;100.00;101938.56;5034837;28;20045;-61
2023/05/02 02:09:07;;;;;;;18.45;11.77;;;;;;;11.76;100.00;101939.59;5033336;28;20046;-60
2023/05/02 02:11:56;;;;;;;16.27;11.88;;;;;;;11.77;100.00;101933.91;5034528;28;20053;-61
2023/05/02 02:14:32;;;;;;;16.65;12.27;;;;;;;11.76;100.00;101945.91;5033184;28;20071;-60
2023/05/02 02:17:03;;;;;;;19.05;12.57;;;;;;;11.75;100.00;101949.72;5036136;28;20037;-60
2023/05/02 02:19:31;;;;;;;18.15;12.68;;;;;;;11.77;100.00;101955.75;5044139;28;20497;-60
2023/05/02 02:22:00;;;;;;;18.08;11.93;;;;;;;11.77;100.00;101949.47;5052609;28;20077;-59
2023/05/02 02:24:28;;;;;;;19.10;12.48;;;;;;;11.71;100.00;101943.94;5053957;28;20048;-60
2023/05/02 02:26:56;;;;;;;19.55;13.00;;;;;;;11.71;100.00;101949.41;5055268;28;20041;-60
2023/05/02 02:29:24;;;;;;;20.55;13.38;;;;;;;11.71;100.00;101951.28;5053821;28;20501;-61
2023/05/02 02:31:52;;;;;;;18.65;13.38;;;;;;;11.73;100.00;101954.59;5052501;28;20215;-61
2023/05/02 02:34:20;;;;;;;19.23;13.52;;;;;;;11.71;100.00;101954.00;5053504;28;20069;-63
2023/05/02 02:36:57;;;;;;;18.10;12.43;;;;;;;11.71;100.00;101946.66;5053822;28;20065;-61
2023/05/02 02:39:44;;;;;;;20.27;13.40;;;;;;;11.75;100.00;101957.06;5035346;28;20127;-61
2023/05/02 02:42:17;;;;;;;18.30;13.23;;;;;;;11.76;100.00;101958.72;5036029;28;20045;-61
2023/05/02 02:45:23;;;;;;;18.27;12.45;;;;;;;11.73;100.00;101960.03;5036698;28;20083;-64
2023/05/02 02:47:57;;;;;;;20.40;13.20;;;;;;;11.69;100.00;101964.38;5034119;28;20045;-60
2023/05/02 02:50:33;;;;;;;17.55;12.05;;;;;;;11.65;100.00;101964.03;5016195;28;20159;-60
2023/05/02 02:53:07;;;;;;;17.15;12.20;;;;;;;11.62;100.00;101960.97;5041153;28;20045;-60
2023/05/02 02:55:59;;;;;;;18.38;11.32;;;;;;;11.62;100.00;101963.69;5054322;28;20079;-60
2023/05/02 02:58:55;;;;;;;17.65;10.93;;;;;;;11.62;100.00;101974.63;5026570;28;20060;-63
2023/05/02 03:01:24;;;;;;;16.25;10.57;;;;;;;11.64;100.00;101972.44;5048633;28;20045;-61
2023/05/02 03:03:53;;;;;;;13.13;9.80;;;;;;;11.65;100.00;101965.94;5055813;28;20045;-62
2023/05/02 03:06:20;;;;;;;16.98;10.68;;;;;;;11.66;100.00;101983.94;5039339;28;20041;-63
2023/05/02 03:08:51;;;;;;;15.18;10.05;;;;;;;11.62;100.00;101980.91;5031843;28;20070;-62
2023/05/02 03:11:22;;;;;;;16.83;9.70;;;;;;;11.60;100.00;101993.13;5033172;28;20061;-60
2023/05/02 03:13:51;;;;;;;16.48;9.65;;;;;;;11.55;100.00;101990.31;5036665;28;20082;-61
2023/05/02 03:16:27;;;;;;;15.00;9.32;;;;;;;11.58;100.00;101992.56;5044520;28;20077;-61
2023/05/02 03:18:55;;;;;;;15.63;8.73;;;;;;;11.57;100.00;101999.06;5052202;28;20061;-61
2023/05/02 03:21:23;;;;;;;14.40;8.18;;;;;;;11.56;100.00;102013.81;5015540;28;20095;-61
2023/05/02 03:23:52;;;;;;;16.92;7.53;;;;;;;11.47;100.00;102021.56;5014808;28;20456;-60
2023/05/02 03:26:20;;;;;;;12.45;5.50;;;;;;;11.33;100.00;102018.31;5062913;28;20067;-61
2023/05/02 03:28:49;;;;;;;12.80;4.55;;;;;;;11.26;100.00;102020.34;5044162;28;20065;-61
2023/05/02 03:31:22;;;;;;;10.63;4.13;;;;;;;11.23;100.00;102026.28;5031972;28;20494;-61
2023/05/02 03:33:53;;;;;;;12.80;4.43;;;;;;;11.23;100.00;102020.81;5019625;28;20041;-63
2023/05/02 03:36:21;;;;;;;9.85;3.67;;;;;;;11.23;100.00;102031.72;5072690;28;20046;-61
2023/05/02 03:38:52;;;;;;;9.27;4.05;;;;;;;11.23;100.00;102032.59;5054780;28;20521;-59
2023/05/02 03:41:20;;;;;;;9.48;3.78;;;;;;;11.29;100.00;102033.50;5032777;28;20080;-62
2023/05/02 03:43:54;;;;;;;11.05;4.13;;;;;;;11.31;100.00;102036.81;5054994;28;20112;-63
2023/05/02 03:46:25;;;;;;;12.25;4.07;;;;;;;11.27;100.00;102044.66;5057206;28;20081;-61
2023/05/02 03:48:53;;;;;;;13.27;3.92;;;;;;;11.29;100.00;102038.97;5060539;28;20047;-60
2023/05/02 03:51:21;;;;;;;14.85;4.38;;;;;;;11.30;100.00;102038.72;5041873;28;20079;-62
2023/05/02 03:53:52;;;;;;;12.75;3.60;;;;;;;11.31;100.00;102042.28;5052129;28;20501;-61
2023/05/02 03:56:20;;;;;;;9.65;3.80;;;;;;;11.27;100.00;102043.81;5047898;28;20110;-62
2023/05/02 03:58:57;;;;;;;13.05;3.60;;;;;;;11.22;100.00;102039.09;5021669;28;20075;-62
2023/05/02 04:01:26;;;;;;;13.35;3.47;;;;;;;11.18;100.00;102053.47;5039012;28;20041;-62
2023/05/02 04:03:55;;;;;;;10.50;3.60;;;;;;;11.13;100.00;102056.91;5038367;28;20041;-61
2023/05/02 04:06:25;;;;;;;13.60;3.25;;;;;;;11.12;100.00;102054.44;5051837;28;20099;-60
2023/05/02 04:08:59;;;;;;;11.05;3.20;;;;;;;11.05;100.00;102066.28;5048323;28;20045;-61
2023/05/02 04:11:33;;;;;;;9.60;3.00;;;;;;;11.05;100.00;102063.56;5017011;28;20517;-62
2023/05/02 04:14:03;;;;;;;9.57;3.20;;;;;;;11.08;100.00;102070.44;5051497;28;20045;-60
2023/05/02 04:16:31;;;;;;;9.85;3.03;;;;;;;11.06;100.00;102069.84;5053700;28;20051;-61
2023/05/02 04:19:00;;;;;;;8.80;2.70;;;;;;;10.93;100.00;102076.41;5051985;28;20045;-63
2023/05/02 04:21:28;;;;;;;8.77;3.28;;;;;;;10.82;100.00;102072.63;5053084;28;20400;-64
2023/05/02 04:23:56;;;;;;;9.82;2.90;;;;;;;10.83;100.00;102081.63;5053333;28;20444;-61
2023/05/02 04:26:25;;;;;;;9.82;2.97;;;;;;;10.84;100.00;102081.38;5056697;28;20044;-62
2023/05/02 04:28:59;;;;;;;11.00;2.78;;;;;;;10.87;100.00;102088.25;5054846;28;20075;-62
2023/05/02 04:31:27;;;;;;;9.65;3.03;;;;;;;10.95;100.00;102090.63;5054348;28;20041;-61
2023/05/02 04:33:55;;;;;;;9.00;2.83;;;;;;;10.99;100.00;102099.16;5037772;28;20106;-61
2023/05/02 04:36:27;;;;;;;8.75;2.55;;;;;;;10.96;100.00;102103.19;5071201;28;20044;-61
2023/05/02 04:38:55;;;;;;;11.77;2.63;;;;;;;11.00;100.00;102115.28;5058961;28;20056;-62
2023/05/02 04:41:22;;;;;;;8.95;2.70;;;;;;;11.02;100.00;102107.69;5053889;28;20516;-62
2023/05/02 04:43:57;;;;;;;7.72;2.53;;;;;;;11.06;100.00;102116.22;5038656;28;20508;-60
2023/05/02 04:46:25;;;;;;;8.43;2.60;;;;;;;11.07;100.00;102118.72;5053858;28;20063;-63
2023/05/02 04:48:53;;;;;;;9.90;2.80;;;;;;;11.02;100.00;102110.44;5055537;28;20063;-61
2023/05/02 04:51:21;;;;;;;8.00;2.60;;;;;;;11.02;100.00;102110.44;5042144;28;20044;-60
2023/05/02 04:53:50;;;;;;;9.70;2.90;;;;;;;11.02;100.00;102123.25;5066026;28;20043;-60
2023/05/02 04:56:17;;;;;;;8.57;2.63;;;;;;;11.04;99.65;102127.38;5037567;28;20565;-61
2023/05/02 04:58:45;;;;;;;9.02;3.00;;;;;;;11.03;99.47;102131.16;5049144;28;20049;-61
2023/05/02 05:01:13;;;;;;;10.48;2.70;;;;;;;11.01;99.23;102125.13;5017764;28;20049;-61
2023/05/02 05:03:41;;;;;;;11.50;2.63;;;;;;;10.93;99.32;102144.56;5020317;28;20052;-62
2023/05/02 05:06:11;;;;;;;7.68;2.67;;;;;;;10.90;99.59;102150.50;5037440;28;20048;-61
2023/05/02 05:08:39;;;;;;;8.45;2.63;;;;;;;10.90;99.50;102158.69;5050660;28;20038;-64
2023/05/02 05:11:07;;;;;;;7.25;3.05;;;;;;;10.79;99.68;102162.25;5040990;28;20144;-62
2023/05/02 05:13:35;;;;;;;12.10;2.92;;;;;;;10.76;100.00;102152.63;5043836;28;20053;-63
2023/05/02 05:16:03;;;;;;;8.15;2.83;;;;;;;10.78;100.00;102160.59;5022239;28;20061;-64
2023/05/02 05:18:39;;;;;;;10.20;3.45;;;;;;;10.76;99.93;102168.19;5038209;28;20072;-64
2023/05/02 05:21:10;;;;;;;9.85;3.22;;;;;;;10.72;99.36;102172.44;5045367;28;20056;-64
2023/05/02 05:23:38;;;;;;;9.82;3.03;;;;;;;10.64;99.17;102179.88;4330202;28;10000507;-65
2023/05/02 05:26:15;;;;;;;10.35;3.08;;;;;;;10.65;99.50;102183.44;5052581;28;20052;-67
2023/05/02 05:28:45;;;;;;;16.15;3.20;;;;;;;10.63;98.80;102178.25;5030705;28;20056;-65
2023/05/02 05:31:15;;;;;;;10.23;2.97;;;;;;;10.63;99.09;102180.09;5036348;28;20041;-65
2023/05/02 05:33:47;;;;;;;11.88;3.17;;;;;;;10.66;98.59;102179.66;5051249;28;20135;-67
2023/05/02 05:36:16;;;;;;;12.15;3.38;;;;;;;10.66;98.48;102191.38;5056834;28;20045;-65
2023/05/02 05:38:43;;;;;;;13.82;3.42;;;;;;;10.68;98.69;102188.44;5017240;28;20100;-66
2023/05/02 05:41:11;;;;;;;15.55;3.58;;;;;;;10.63;98.00;102197.31;5038240;28;20075;-67
2023/05/02 05:43:44;;;;;;;14.77;3.60;;;;;;;10.60;98.14;102186.03;5061501;28;20061;-67
2023/05/02 05:46:12;;;;;;;12.23;3.28;;;;;;;10.63;98.12;102193.75;5030680;28;20497;-67
2023/05/02 05:48:40;;;;;;;11.95;3.80;;;;;;;10.61;98.24;102207.63;5012580;28;20163;-65
2023/05/02 05:51:08;;;;;;;13.70;3.53;;;;;;;10.57;98.15;102209.13;5041674;28;20072;-66
2023/05/02 05:53:36;;;;;;;14.68;3.55;;;;;;;10.63;98.72;102210.94;5028662;28;20044;-65
2023/05/02 05:56:12;;;;;;;8.65;3.05;;;;;;;10.63;98.03;102219.13;5029225;28;20055;-68
2023/05/02 05:58:46;;;;;;;12.07;3.33;;;;;;;10.60;98.11;102216.84;5013498;28;20438;-65
2023/05/02 06:01:14;;;;;;;12.63;3.45;;;;;;;10.66;98.11;102223.28;5033810;28;20049;-65
2023/05/02 06:03:42;;;;;;;10.60;3.40;;;;;;;10.62;97.29;102231.06;5042306;28;20052;-66
2023/05/02 06:06:11;;;;;;;10.43;3.10;;;;;;;10.57;97.30;102222.78;5015946;28;20057;-64
2023/05/02 06:08:39;;;;;;;10.65;3.10;;;;;;;10.58;97.55;102227.19;5034667;28;20065;-65
2023/05/02 06:11:10;;;;;;;11.80;3.50;;;;;;;10.54;97.43;102236.88;5048958;28;20127;-65
2023/05/02 06:13:38;;;;;;;13.88;3.40;;;;;;;10.51;97.79;102241.94;5046281;28;20485;-64
2023/05/02 06:16:07;;;;;;;12.48;3.72;;;;;;;10.45;97.05;102238.25;5048238;28;20103;-64
2023/05/02 06:18:35;;;;;;;26.27;4.22;;;;;;;10.43;97.45;102246.66;5050354;28;20037;-64
2023/05/02 06:21:04;;;;;;;18.75;3.75;;;;;;;10.47;96.89;102240.75;5051589;28;20120;-65
2023/05/02 06:23:32;;;;;;;17.85;3.92;;;;;;;10.44;97.15;102245.59;5019839;28;20386;-63
2023/05/02 06:26:00;;;;;;;17.50;4.07;;;;;;;10.37;96.68;102242.16;5053018;28;20053;-63
2023/05/02 06:28:28;;;;;;;13.35;3.83;;;;;;;10.37;97.46;102257.69;5052075;28;20489;-65
2023/05/02 06:31:04;;;;;;;26.85;3.92;;;;;;;10.32;99.12;102260.22;5053493;28;20049;-66
2023/05/02 06:33:33;;;;;;;16.45;3.92;;;;;;;10.31;99.22;102269.47;5036266;28;20052;-63
2023/05/02 06:36:01;;;;;;;18.00;3.70;;;;;;;10.36;100.00;102277.78;5053365;28;20041;-65
2023/05/02 06:38:29;;;;;;;13.35;3.83;;;;;;;10.43;99.98;102275.81;5057689;28;20048;-63
2023/05/02 06:40:56;;;;;;;19.45;3.40;;;;;;;10.48;98.60;102280.56;5052692;28;20143;-65
2023/05/02 06:43:24;;;;;;;9.52;3.03;;;;;;;10.45;96.70;102290.03;5053802;28;20041;-63
2023/05/02 06:45:55;;;;;;;12.32;3.50;;;;;;;10.39;95.16;102297.25;5053574;28;20129;-64
2023/05/02 06:48:23;;;;;;;12.55;3.15;;;;;;;10.35;92.27;102300.66;5054493;28;20064;-63
2023/05/02 06:50:54;;;;;;;13.70;3.63;;;;;;;10.31;91.01;102307.63;5043413;28;20041;-65
2023/05/02 06:53:22;;;;;;;19.45;4.30;;;;;;;10.23;88.72;102306.03;5033625;28;20437;-64
2023/05/02 06:55:49;;;;;;;14.82;3.58;;;;;;;10.30;88.43;102316.88;5032513;28;20041;-63
2023/05/02 06:58:17;;;;;;;13.52;3.70;;;;;;;10.38;85.83;102313.81;5049691;28;20124;-64
2023/05/02 07:00:45;;;;;;;12.80;3.50;;;;;;;10.36;84.70;102322.22;5049387;28;20588;-63
2023/05/02 07:03:14;;;;;;;13.43;3.85;;;;;;;10.37;84.18;102312.16;5046928;28;20126;-64
2023/05/02 07:05:41;;;;;;;16.13;4.18;;;;;;;10.42;83.77;102323.19;5034148;28;20051;-63
2023/05/02 07:08:10;;;;;;;16.80;3.95;;;;;;;10.37;84.00;102318.44;5061492;28;20070;-65
2023/05/02 07:10:38;;;;;;;15.68;3.85;;;;;;;10.35;84.45;102330.63;5065452;28;20439;-65
2023/05/02 07:13:05;;;;;;;16.70;4.05;;;;;;;10.23;83.55;102327.81;5051870;28;20053;-64
2023/05/02 07:15:33;;;;;;;13.45;3.63;;;;;;;10.21;84.34;102332.66;5026419;28;20383;-64
2023/05/02 07:18:01;;;;;;;15.52;4.30;;;;;;;10.16;83.08;102344.22;5037491;28;20040;-64
2023/05/02 07:20:29;;;;;;;15.63;4.18;;;;;;;10.09;84.22;102348.91;5071013;28;20041;-65
2023/05/02 07:22:56;;;;;;;19.23;4.78;;;;;;;10.07;86.59;102345.59;5032587;28;20143;-66
2023/05/02 07:25:24;;;;;;;16.75;4.20;;;;;;;10.24;85.79;102362.97;5052262;28;20115;-63
2023/05/02 07:27:52;;;;;;;13.00;3.88;;;;;;;10.33;85.60;102360.00;5067225;28;20048;-64
2023/05/02 07:30:19;;;;;;;17.23;4.50;;;;;;;10.29;85.00;102356.06;5073834;28;20087;-63
2023/05/02 07:32:47;;;;;;;16.30;4.45;;;;;;;10.30;86.18;102358.56;5060311;28;20107;-65
2023/05/02 07:35:15;;;;;;;17.73;4.30;;;;;;;10.30;86.19;102361.28;5053223;28;20037;-64
2023/05/02 07:37:43;;;;;;;13.90;4.15;;;;;;;10.32;86.04;102363.75;5035052;28;20103;-65
2023/05/02 07:40:10;;;;;;;17.13;4.07;;;;;;;10.27;86.77;102366.31;5038194;28;20058;-62
2023/05/02 07:42:40;;;;;;;15.27;4.32;;;;;;;10.35;86.65;102364.16;5050484;28;20397;-63
2023/05/02 07:45:08;;;;;;;19.30;4.85;;;;;;;10.37;87.45;102367.47;5052341;28;20038;-63
2023/05/02 07:47:36;;;;;;;17.35;4.65;;;;;;;10.36;87.28;102364.97;5024400;28;20136;-66
2023/05/02 07:50:05;;;;;;;15.38;4.50;;;;;;;10.43;87.55;102371.19;5037443;28;20049;-64
2023/05/02 07:52:33;;;;;;;14.32;4.22;;;;;;;10.51;86.98;102373.59;5055005;28;20053;-63
2023/05/02 07:55:00;;;;;;;23.27;5.10;;;;;;;10.54;86.18;102370.41;5070334;28;20076;-63
2023/05/02 07:57:28;;;;;;;15.98;4.28;;;;;;;10.53;86.90;102374.19;5041893;28;20045;-66
2023/05/02 07:59:56;;;;;;;17.58;4.53;;;;;;;10.63;86.56;102371.75;5043508;28;20053;-62
2023/05/02 08:02:24;;;;;;;16.50;4.20;;;;;;;10.66;83.94;102382.19;5055457;28;20045;-64
2023/05/02 08:04:53;;;;;;;15.55;3.80;;;;;;;10.51;78.76;102384.50;5056864;28;20084;-65
2023/05/02 08:07:21;;;;;;;16.20;4.28;;;;;;;10.44;78.76;102379.13;5061577;28;20040;-65
2023/05/02 08:09:49;;;;;;;14.00;3.70;;;;;;;10.49;79.22;102380.34;5058616;28;20066;-65
2023/05/02 08:12:17;;;;;;;13.60;3.63;;;;;;;10.57;77.65;102386.28;5076024;28;20052;-64
2023/05/02 08:14:44;;;;;;;10.27;3.30;;;;;;;10.56;77.55;102398.28;5059334;28;20127;-65
2023/05/02 08:17:12;;;;;;;16.00;3.55;;;;;;;10.64;76.83;102397.13;5058272;28;20154;-65
2023/05/02 08:19:40;;;;;;;13.10;3.78;;;;;;;10.58;72.68;102412.50;5075791;28;20131;-64
2023/05/02 08:22:07;;;;;;;12.52;3.42;;;;;;;10.55;72.61;102399.31;5076924;28;20095;-65
2023/05/02 08:24:35;;;;;;;10.88;3.17;;;;;;;10.68;72.06;102405.66;5075697;28;20059;-65
2023/05/02 08:27:03;;;;;;;11.82;3.20;;;;;;;10.78;71.95;102411.41;5035870;28;20517;-66
2023/05/02 08:29:31;;;;;;;10.77;3.00;;;;;;;10.85;71.45;102412.16;5056447;28;20063;-65
2023/05/02 08:31:58;;;;;;;10.90;2.80;;;;;;;10.82;66.18;102415.31;5057089;28;20060;-63
2023/05/02 08:34:26;;;;;;;8.13;2.83;;;;;;;10.70;64.24;102419.91;5040441;28;20049;-64
2023/05/02 08:36:54;;;;;;;9.55;2.88;;;;;;;10.68;64.51;102420.16;5065711;28;20079;-65
2023/05/02 08:39:25;;;;;;;9.45;2.92;;;;;;;10.63;63.92;102426.28;5047507;28;20079;-65
2023/05/02 08:41:52;;;;;;;9.27;2.97;;;;;;;10.70;65.88;102428.06;5055577;28;20489;-65
2023/05/02 08:44:20;;;;;;;7.25;2.67;;;;;;;10.84;65.28;102426.84;5054592;28;20056;-64
2023/05/02 08:46:49;;;;;;;7.63;2.85;;;;;;;10.93;62.58;102432.81;5059743;28;20066;-65
2023/05/02 08:49:17;;;;;;;11.68;4.15;;;;;;;11.03;60.91;102433.91;5036797;28;20152;-66
2023/05/02 08:51:47;;;;;;;11.23;2.90;;;;;;;11.01;60.12;102436.03;5034848;28;20041;-64
2023/05/02 08:54:16;;;;;;;14.30;3.00;;;;;;;10.76;59.04;102443.53;5034940;28;20120;-64
2023/05/02 08:56:45;;;;;;;9.40;2.78;;;;;;;10.82;59.50;102450.78;5047609;28;20063;-65
2023/05/02 08:59:13;;;;;;;14.85;3.40;;;;;;;10.79;63.54;102443.06;5057580;28;20390;-65
2023/05/02 09:01:46;;;;;;;8.18;2.90;;;;;;;10.75;65.27;102450.88;5055191;28;20417;-63
2023/05/02 09:04:14;;;;;;;9.00;3.45;;;;;;;10.75;67.32;102455.47;5053982;28;20079;-64
2023/05/02 09:06:42;;;;;;;17.38;4.30;;;;;;;10.68;69.81;102460.19;5035185;28;20042;-65
2023/05/02 09:09:10;;;;;;;14.75;3.80;;;;;;;10.55;72.13;102456.56;5040632;28;20078;-63
2023/05/02 09:11:38;;;;;;;15.02;4.10;;;;;;;10.55;73.97;102463.91;5049176;28;20075;-65
2023/05/02 09:14:16;;;;;;;15.23;3.70;;;;;;;10.64;73.24;102471.53;5070970;28;20488;-66
2023/05/02 09:16:44;;;;;;;15.00;3.88;;;;;;;10.74;72.84;102475.63;5055416;28;20044;-65
2023/05/02 09:19:24;;;;;;;17.65;4.18;;;;;;;10.79;72.60;102473.88;5053395;28;20123;-63
2023/05/02 09:21:59;;;;;;;12.45;3.30;;;;;;;10.76;72.03;102473.53;5055647;28;20068;-64
2023/05/02 09:24:26;;;;;;;13.20;4.00;;;;;;;10.67;71.89;102470.25;5034196;28;20049;-66
2023/05/02 09:27:02;;;;;;;11.20;3.38;;;;;;;10.67;71.76;102475.72;5054723;28;20170;-65
2023/05/02 09:29:34;;;;;;;14.20;4.00;;;;;;;10.65;70.49;102503.22;5053208;28;20041;-66
2023/05/02 09:32:04;;;;;;;15.23;4.00;;;;;;;10.69;70.48;102489.13;5053713;28;20052;-65
2023/05/02 09:34:36;;;;;;;12.90;3.22;;;;;;;10.78;70.41;102485.03;5054022;28;20045;-65
2023/05/02 09:37:04;;;;;;;15.82;3.92;;;;;;;10.89;70.97;102492.44;5038206;28;20132;-64
2023/05/02 09:39:32;;;;;;;14.40;3.92;;;;;;;11.01;70.10;102487.03;5035842;28;20045;-64
2023/05/02 09:42:00;;;;;;;12.63;3.50;;;;;;;10.97;67.80;102492.13;5045698;28;20051;-65
2023/05/02 09:44:36;;;;;;;9.85;3.20;;;;;;;11.04;68.98;102483.84;5069822;28;20041;-64
2023/05/02 09:47:05;;;;;;;11.70;3.38;;;;;;;11.04;70.04;102492.03;5074381;28;20059;-64
2023/05/02 09:49:44;;;;;;;11.75;3.17;;;;;;;11.01;67.85;102498.78;5033486;28;20049;-64
2023/05/02 09:52:14;;;;;;;9.68;3.03;;;;;;;10.92;65.80;102502.03;5052686;28;20044;-65
2023/05/02 09:54:42;;;;;;;12.00;3.28;;;;;;;10.83;67.14;102513.28;5056812;28;20044;-63
2023/05/02 09:57:10;;;;;;;9.68;3.30;;;;;;;10.71;67.70;102508.81;5074625;28;20045;-63
2023/05/02 09:59:51;;;;;;;18.20;3.80;;;;;;;10.81;67.15;102503.66;5055816;28;20102;-65
2023/05/02 10:02:20;;;;;;;11.90;3.20;;;;;;;10.86;63.95;102509.25;5053518;28;20075;-64
2023/05/02 10:04:49;;;;;;;11.77;3.25;;;;;;;10.90;64.25;102507.75;5054402;28;20048;-62
2023/05/02 10:07:17;;;;;;;12.07;3.58;;;;;;;10.93;62.40;102514.63;5036718;28;20044;-63
2023/05/02 10:09:46;;;;;;;11.52;3.38;;;;;;;10.87;63.31;102506.31;5050664;28;20053;-64
2023/05/02 10:12:19;;;;;;;12.65;3.13;;;;;;;10.87;63.06;102509.03;5057670;28;20109;-69
2023/05/02 10:14:57;;;;;;;9.98;3.20;;;;;;;10.93;61.74;102507.28;5039811;28;20057;-64
2023/05/02 10:17:38;;;;;;;11.95;3.63;;;;;;;11.05;61.68;102508.16;5053934;28;20059;-62
2023/05/02 10:20:07;;;;;;;8.80;2.85;;;;;;;11.18;60.96;102517.22;5046694;28;20099;-62
2023/05/02 10:22:35;;;;;;;9.38;3.20;;;;;;;11.21;59.89;102514.06;5050599;28;20044;-63
2023/05/02 10:25:03;;;;;;;11.90;3.10;;;;;;;11.29;60.15;102516.47;5075864;28;20070;-62
2023/05/02 10:27:32;;;;;;;10.95;3.40;;;;;;;11.34;61.25;102513.88;5076081;28;20140;-62
2023/05/02 10:30:02;;;;;;;13.55;3.60;;;;;;;11.49;61.56;102524.34;5056677;28;20056;-63
2023/05/02 10:32:33;;;;;;;11.63;3.40;;;;;;;11.39;61.01;102521.38;4353850;28;10000578;-63
2023/05/02 10:35:05;;;;;;;10.43;3.33;;;;;;;11.16;62.09;102522.94;5028819;28;20049;-64
2023/05/02 10:37:35;;;;;;;12.70;3.35;;;;;;;11.24;61.46;102521.78;5029380;28;20148;-65
2023/05/02 10:40:04;;;;;;;10.75;3.28;;;;;;;11.28;61.47;102522.97;5037506;28;20072;-63
2023/05/02 10:42:38;;;;;;;10.93;3.08;;;;;;;11.32;60.96;102526.91;5021366;28;20466;-63
2023/05/02 10:45:29;;;;;;;11.88;3.60;;;;;;;11.40;59.16;102532.06;5048485;28;20397;-64
2023/05/02 10:48:17;;;;;;;12.02;3.38;;;;;;;11.54;58.07;102520.94;5032027;28;20063;-63
2023/05/02 10:50:53;;;;;;;8.30;3.20;;;;;;;11.63;57.88;102527.72;5047770;28;20511;-64
2023/05/02 10:53:25;;;;;;;9.13;3.03;;;;;;;11.75;57.65;102520.41;5029305;28;20084;-63
2023/05/02 10:56:15;;;;;;;8.73;3.03;;;;;;;11.73;55.37;102523.34;5030226;28;20084;-64
2023/05/02 10:58:44;;;;;;;9.82;3.40;;;;;;;11.71;55.23;102530.97;5030767;28;20480;-63
2023/05/02 11:01:39;;;;;;;9.43;2.97;;;;;;;11.74;53.79;102518.75;5031712;28;20083;-63
2023/05/02 11:04:08;;;;;;;10.10;3.20;;;;;;;11.79;53.50;102518.88;5048099;28;20107;-62
2023/05/02 11:07:00;;;;;;;12.15;3.70;;;;;;;11.74;54.32;102518.75;5049689;28;20131;-66
2023/05/02 11:09:27;;;;;;;10.05;3.10;;;;;;;11.63;57.46;102533.19;5040240;28;20111;-64
2023/05/02 11:11:56;;;;;;;8.27;3.00;;;;;;;11.53;57.31;102539.22;5058339;28;20169;-66
2023/05/02 11:14:29;;;;;;;10.60;3.03;;;;;;;11.44;55.72;102540.59;5054001;28;20056;-66
2023/05/02 11:16:57;;;;;;;10.07;3.40;;;;;;;11.39;56.68;102538.56;5052613;28;20052;-62
2023/05/02 11:19:26;;;;;;;14.65;3.50;;;;;;;11.36;55.84;102532.75;5053959;28;20040;-64
2023/05/02 11:22:25;;;;;;;9.48;3.30;;;;;;;11.37;55.99;102528.94;5054616;28;20551;-66
2023/05/02 11:24:53;;;;;;;12.35;3.13;;;;;;;11.42;54.95;102537.28;5054863;28;20067;-65
2023/05/02 11:27:36;;;;;;;7.93;3.20;;;;;;;11.39;55.37;102538.56;5053707;28;20099;-65
2023/05/02 11:30:06;;;;;;;11.98;3.53;;;;;;;11.45;54.80;102553.19;5053728;28;20049;-63